Grand Strand Airport North Myrtle Beach US
ICAO: KCRE
IATA: CRE
Category: Medium
Scheduled Services: No

Elevation: 32 ft
TransAlt. 18000 ft.

Airport Communications:
MYRTLE BEACH APP/DEP:119.2
ATIS:119.625
CTAF:124.6
STRAND GND:121.8
ANDERSON RDO:123.6
STRAND TWR:124.6
UNICOM:122.95

KCRE Zoom In..

Runways:

(A) RW 05 length 5997 ft width 100 ft
---- / hdg 54

(B) RW 23 length 5997 ft width 100 ft
ILS 111.70 / hdg 234

Location; KCRE
Day. 04 / Time. 02.01 Zulu
* Altimeter: 29.38
* Temperature: 26° c. 78.8°f.
* Wind from: 020° Speed 26 kn with Gusts up to 42 kn.
Dewpoint: 24° c.
Visibility: 1 m.
Clouds: Few 700 ft.
Clouds: Broken 1500 ft.
Clouds: Overcast 2700 ft.
Conditions: Mist.

KCRE 040201Z AUTO 02026G42KT 1 1/4SM +RA BR FEW007 BKN015 OVC027 26/24 A2938 RMK AO1 PK WND 04038/0158 PRESFR P0016 T02560244

Going to: --> -->


Wind From 020°
Speed 26 kn.

 
 
jpsmedia worldairports.se 2020   terms of use